Search for airport 
image banner adimage banner adimage banner ad
image banner ad

1CL1 - Little Buttes Antique Airfield

Located in Lancaster, United States

ICAO - 1CL1, IATA -

Data provided by Airmate  

General information

Coordinates: N34°47'39" W118°16'39"
Elevation is 2433 feet MSL.
Magnetic variation is 14° East
View others Airports in California

Operational data

Special qualification required
Current time UTC:
Current local time:
Weather at : KWJF - General Wm J Fox Airfield ( 8 km )
METAR: KWJF 212256Z VRB06KT 10SM CLR 34/M04 A3014 RMK AO2 SLP190 T03441039
TAF: KWJF 211731Z 2118/2218 00000KT P6SM SKC FM211900 07008KT P6SM SKC FM212300 VRB03KT P6SM SKC FM220300 24008KT P6SM SKC
View NOTAMs / SUP AIP / TFR affecting this airport [VIEW]
Communications frequencies: [VIEW]

Runways:

RWY identifierQFULength (ft)Width (ft)SurfaceLDA (ft)
06290080GRASS
24290080GRASS

Airport contact information

Address: Lancaster United States

Satellite view of 1CL1